IBE06ZA LIPZ-LEMD
Flight info
| Callsign | IBE06ZA |
|---|---|
| Flight time | 2h 19m |
| Altitude | 35000 |
| Route | CHI DCT GEKBA DCT VAMTU UM984 DIVKO UN975 NILDU N975 ADUXO |
| Aircraft | A320/M-SDE3FGHIRWY/LB1 |
Departure
| Time | 2026-05-07 09:41 |
|---|---|
| Airport | Venice Marco Polo Airport (LIPZ) |
Arrival
| Time | 2026-05-07 12:01 |
|---|---|
| Airport | Adolfo Suárez Madrid–Barajas Airport (LEMD) |
| Time | Latitude | Longitude | Altitude | Speed | Heading |
|---|---|---|---|---|---|
| 2026-05-07 08:55 | 45.50423 | 12.34202 | 16 ft | 0 kts | 266° |
| 2026-05-07 09:29 | 45.50424 | 12.34219 | 16 ft | 3 kts | 266° |
| 2026-05-07 09:29 | 45.50425 | 12.34250 | 16 ft | 3 kts | 268° |
| 2026-05-07 09:29 | 45.50426 | 12.34280 | 16 ft | 3 kts | 267° |
| 2026-05-07 09:29 | 45.50427 | 12.34310 | 16 ft | 3 kts | 255° |
| 2026-05-07 09:30 | 45.50436 | 12.34334 | 18 ft | 3 kts | 213° |
| 2026-05-07 09:30 | 45.50454 | 12.34344 | 17 ft | 2 kts | 178° |
| 2026-05-07 09:30 | 45.50461 | 12.34344 | 19 ft | 0 kts | 178° |
| 2026-05-07 09:35 | 45.50454 | 12.34344 | 18 ft | 1 kts | 177° |
| 2026-05-07 09:36 | 45.50413 | 12.34347 | 17 ft | 11 kts | 177° |
| 2026-05-07 09:36 | 45.50318 | 12.34354 | 17 ft | 13 kts | 178° |
| 2026-05-07 09:36 | 45.50239 | 12.34301 | 16 ft | 16 kts | 228° |
| 2026-05-07 09:36 | 45.50143 | 12.34160 | 16 ft | 22 kts | 222° |
| 2026-05-07 09:37 | 45.50040 | 12.34026 | 15 ft | 18 kts | 223° |
| 2026-05-07 09:37 | 45.49949 | 12.33906 | 16 ft | 18 kts | 221° |
| 2026-05-07 09:37 | 45.49851 | 12.33783 | 16 ft | 19 kts | 221° |
| 2026-05-07 09:37 | 45.49764 | 12.33677 | 16 ft | 14 kts | 214° |
| 2026-05-07 09:38 | 45.49681 | 12.33611 | 18 ft | 12 kts | 215° |
| 2026-05-07 09:38 | 45.49618 | 12.33533 | 16 ft | 12 kts | 217° |
| 2026-05-07 09:38 | 45.49545 | 12.33549 | 17 ft | 10 kts | 134° |
| 2026-05-07 09:38 | 45.49501 | 12.33617 | 17 ft | 9 kts | 133° |
| 2026-05-07 09:39 | 45.49458 | 12.33686 | 16 ft | 12 kts | 131° |
| 2026-05-07 09:39 | 45.49420 | 12.33765 | 16 ft | 9 kts | 110° |
| 2026-05-07 09:39 | 45.49442 | 12.33817 | 15 ft | 0 kts | 42° |
| 2026-05-07 09:40 | 45.49500 | 12.33892 | 15 ft | 34 kts | 42° |
| 2026-05-07 09:41 | 45.49869 | 12.34365 | 13 ft | 104 kts | 42° |
| 2026-05-07 09:41 | 45.50549 | 12.35235 | 14 ft | 156 kts | 42° |
| 2026-05-07 09:41 | 45.51453 | 12.36381 | 221 ft | 181 kts | 41° |
| 2026-05-07 09:41 | 45.52411 | 12.37548 | 929 ft | 181 kts | 40° |
| 2026-05-07 09:42 | 45.53330 | 12.38758 | 1693 ft | 180 kts | 53° |
| 2026-05-07 09:42 | 45.53748 | 12.40482 | 2117 ft | 196 kts | 90° |
| 2026-05-07 09:42 | 45.53541 | 12.42485 | 2497 ft | 211 kts | 102° |
| 2026-05-07 09:42 | 45.53279 | 12.44586 | 3071 ft | 219 kts | 101° |
| 2026-05-07 09:43 | 45.53039 | 12.46749 | 3765 ft | 222 kts | 101° |
| 2026-05-07 09:43 | 45.52808 | 12.48933 | 4531 ft | 223 kts | 101° |
| 2026-05-07 09:43 | 45.52559 | 12.51113 | 5281 ft | 222 kts | 108° |
| 2026-05-07 09:43 | 45.51790 | 12.52971 | 5941 ft | 218 kts | 143° |
| 2026-05-07 09:44 | 45.50423 | 12.53917 | 6413 ft | 228 kts | 175° |
| 2026-05-07 09:44 | 45.48776 | 12.53731 | 6711 ft | 250 kts | 191° |
| 2026-05-07 09:44 | 45.47002 | 12.53290 | 7169 ft | 266 kts | 191° |
| 2026-05-07 09:44 | 45.45158 | 12.52832 | 7913 ft | 271 kts | 191° |
| 2026-05-07 09:45 | 45.43288 | 12.52375 | 8752 ft | 273 kts | 192° |
| 2026-05-07 09:45 | 45.41431 | 12.51926 | 9579 ft | 276 kts | 192° |
| 2026-05-07 09:45 | 45.39531 | 12.51471 | 10349 ft | 279 kts | 192° |
| 2026-05-07 09:45 | 45.37521 | 12.50988 | 10636 ft | 301 kts | 192° |
| 2026-05-07 09:46 | 45.35405 | 12.50475 | 10816 ft | 324 kts | 192° |
| 2026-05-07 09:46 | 45.33169 | 12.49647 | 11073 ft | 339 kts | 204° |
| 2026-05-07 09:46 | 45.31064 | 12.48089 | 11639 ft | 344 kts | 212° |
| 2026-05-07 09:46 | 45.28993 | 12.46360 | 12318 ft | 347 kts | 212° |
| 2026-05-07 09:47 | 45.26895 | 12.44615 | 12972 ft | 352 kts | 212° |
| 2026-05-07 09:47 | 45.24772 | 12.42848 | 13631 ft | 356 kts | 212° |
| 2026-05-07 09:47 | 45.22631 | 12.41061 | 14278 ft | 358 kts | 212° |
| 2026-05-07 09:47 | 45.20483 | 12.39267 | 14924 ft | 359 kts | 212° |
| 2026-05-07 09:48 | 45.18323 | 12.37469 | 15556 ft | 361 kts | 212° |
| 2026-05-07 09:48 | 45.16152 | 12.35664 | 16190 ft | 362 kts | 212° |
| 2026-05-07 09:48 | 45.13973 | 12.33850 | 16800 ft | 364 kts | 212° |
| 2026-05-07 09:48 | 45.11785 | 12.32027 | 17402 ft | 366 kts | 213° |
| 2026-05-07 09:49 | 45.09718 | 12.29946 | 17973 ft | 365 kts | 223° |
| 2026-05-07 09:49 | 45.08010 | 12.27300 | 18527 ft | 365 kts | 234° |
| 2026-05-07 09:49 | 45.06735 | 12.24200 | 19050 ft | 366 kts | 245° |
| 2026-05-07 09:49 | 45.05946 | 12.20777 | 19567 ft | 368 kts | 256° |
| 2026-05-07 09:50 | 45.05579 | 12.18389 | 19909 ft | 369 kts | 256° |
| 2026-05-07 09:50 | 45.05039 | 12.14890 | 20410 ft | 370 kts | 255° |
| 2026-05-07 09:50 | 45.04484 | 12.11335 | 20912 ft | 371 kts | 255° |
| 2026-05-07 09:50 | 45.03923 | 12.07772 | 21407 ft | 372 kts | 255° |
| 2026-05-07 09:51 | 45.03355 | 12.04204 | 21894 ft | 373 kts | 255° |
| 2026-05-07 09:51 | 45.02784 | 12.00619 | 22371 ft | 374 kts | 254° |
| 2026-05-07 09:51 | 45.02210 | 11.97023 | 22845 ft | 376 kts | 254° |
| 2026-05-07 09:51 | 45.01635 | 11.93412 | 23323 ft | 377 kts | 254° |
| 2026-05-07 09:52 | 45.01059 | 11.89795 | 23767 ft | 378 kts | 254° |
| 2026-05-07 09:52 | 45.00480 | 11.86161 | 24131 ft | 380 kts | 254° |
| 2026-05-07 09:52 | 44.99895 | 11.82517 | 24492 ft | 381 kts | 254° |
| 2026-05-07 09:52 | 44.99305 | 11.78858 | 24837 ft | 383 kts | 253° |
| 2026-05-07 09:53 | 44.98711 | 11.75181 | 25164 ft | 385 kts | 253° |
| 2026-05-07 09:53 | 44.98117 | 11.71491 | 25503 ft | 386 kts | 254° |
| 2026-05-07 09:53 | 44.97521 | 11.67781 | 25814 ft | 388 kts | 254° |
| 2026-05-07 09:53 | 44.96920 | 11.64053 | 26138 ft | 390 kts | 254° |
| 2026-05-07 09:54 | 44.96313 | 11.60314 | 26469 ft | 392 kts | 254° |
| 2026-05-07 09:54 | 44.95703 | 11.56555 | 26779 ft | 394 kts | 254° |
| 2026-05-07 09:54 | 44.95089 | 11.52781 | 27083 ft | 395 kts | 254° |
| 2026-05-07 09:54 | 44.94472 | 11.48992 | 27420 ft | 397 kts | 254° |
| 2026-05-07 09:55 | 44.93853 | 11.45199 | 27738 ft | 397 kts | 254° |
| 2026-05-07 09:55 | 44.93227 | 11.41392 | 28035 ft | 399 kts | 254° |
| 2026-05-07 09:55 | 44.92593 | 11.37574 | 28334 ft | 400 kts | 254° |
| 2026-05-07 09:55 | 44.91967 | 11.33791 | 28588 ft | 402 kts | 254° |
| 2026-05-07 09:56 | 44.91322 | 11.29892 | 28869 ft | 404 kts | 254° |
| 2026-05-07 09:56 | 44.90693 | 11.26095 | 29233 ft | 403 kts | 254° |
| 2026-05-07 09:56 | 44.90058 | 11.22255 | 29643 ft | 401 kts | 254° |
| 2026-05-07 09:56 | 44.89424 | 11.18429 | 30045 ft | 400 kts | 254° |
| 2026-05-07 09:57 | 44.88790 | 11.14616 | 30382 ft | 399 kts | 254° |
| 2026-05-07 09:57 | 44.88155 | 11.10816 | 30678 ft | 399 kts | 254° |
| 2026-05-07 09:57 | 44.87517 | 11.07013 | 30964 ft | 398 kts | 254° |
| 2026-05-07 09:57 | 44.86877 | 11.03212 | 31250 ft | 398 kts | 254° |
| 2026-05-07 09:58 | 44.86237 | 10.99411 | 31532 ft | 398 kts | 254° |
| 2026-05-07 09:58 | 44.85597 | 10.95615 | 31793 ft | 398 kts | 254° |
| 2026-05-07 09:58 | 44.84956 | 10.91816 | 32079 ft | 399 kts | 254° |
| 2026-05-07 09:58 | 44.84314 | 10.88016 | 32364 ft | 399 kts | 254° |
| 2026-05-07 09:59 | 44.83670 | 10.84218 | 32646 ft | 398 kts | 254° |
| 2026-05-07 09:59 | 44.83024 | 10.80422 | 32931 ft | 398 kts | 254° |
| 2026-05-07 09:59 | 44.82378 | 10.76632 | 33214 ft | 398 kts | 254° |
| 2026-05-07 09:59 | 44.81730 | 10.72840 | 33497 ft | 398 kts | 254° |
| 2026-05-07 10:00 | 44.81081 | 10.69049 | 33786 ft | 398 kts | 254° |
| 2026-05-07 10:00 | 44.80431 | 10.65265 | 34119 ft | 397 kts | 255° |
| 2026-05-07 10:00 | 44.79781 | 10.61495 | 34372 ft | 397 kts | 255° |
| 2026-05-07 10:00 | 44.79132 | 10.57720 | 34594 ft | 397 kts | 255° |
| 2026-05-07 10:01 | 44.78482 | 10.53940 | 34797 ft | 398 kts | 255° |
| 2026-05-07 10:01 | 44.77828 | 10.50155 | 34967 ft | 399 kts | 255° |
| 2026-05-07 10:01 | 44.77168 | 10.46363 | 35027 ft | 400 kts | 255° |
| 2026-05-07 10:02 | 44.75839 | 10.38743 | 35033 ft | 401 kts | 255° |
| 2026-05-07 10:02 | 44.74510 | 10.31115 | 35002 ft | 401 kts | 255° |
| 2026-05-07 10:03 | 44.73176 | 10.23499 | 34975 ft | 401 kts | 255° |
| 2026-05-07 10:03 | 44.71839 | 10.15911 | 35007 ft | 399 kts | 255° |
| 2026-05-07 10:04 | 44.70506 | 10.08347 | 35007 ft | 399 kts | 255° |
| 2026-05-07 10:04 | 44.69168 | 10.00835 | 35006 ft | 399 kts | 255° |
| 2026-05-07 10:05 | 44.67820 | 9.93276 | 35006 ft | 399 kts | 255° |
| 2026-05-07 10:05 | 44.66469 | 9.85719 | 35020 ft | 399 kts | 255° |
| 2026-05-07 10:06 | 44.65106 | 9.78162 | 35011 ft | 400 kts | 255° |
| 2026-05-07 10:06 | 44.63734 | 9.70591 | 35009 ft | 400 kts | 255° |
| 2026-05-07 10:07 | 44.62364 | 9.63014 | 35011 ft | 401 kts | 255° |
| 2026-05-07 10:07 | 44.60990 | 9.55436 | 35010 ft | 400 kts | 255° |
| 2026-05-07 10:08 | 44.59604 | 9.47867 | 34982 ft | 400 kts | 255° |
| 2026-05-07 10:08 | 44.58211 | 9.40310 | 35008 ft | 400 kts | 255° |
| 2026-05-07 10:09 | 44.56822 | 9.32766 | 35010 ft | 399 kts | 255° |
| 2026-05-07 10:09 | 44.55434 | 9.25233 | 35009 ft | 399 kts | 255° |
| 2026-05-07 10:10 | 44.54038 | 9.17704 | 35013 ft | 399 kts | 255° |
| 2026-05-07 10:10 | 44.52641 | 9.10179 | 35016 ft | 399 kts | 255° |
| 2026-05-07 10:11 | 44.51231 | 9.02653 | 35032 ft | 399 kts | 255° |
| 2026-05-07 10:11 | 44.49814 | 8.95129 | 35030 ft | 399 kts | 255° |
| 2026-05-07 10:12 | 44.48388 | 8.87609 | 35027 ft | 400 kts | 255° |
| 2026-05-07 10:12 | 44.46961 | 8.80085 | 35023 ft | 400 kts | 255° |
| 2026-05-07 10:13 | 44.45529 | 8.72565 | 35027 ft | 400 kts | 255° |
| 2026-05-07 10:13 | 44.44100 | 8.65091 | 35030 ft | 400 kts | 255° |
| 2026-05-07 10:14 | 44.42656 | 8.57576 | 35022 ft | 400 kts | 255° |
| 2026-05-07 10:14 | 44.41206 | 8.50058 | 35018 ft | 400 kts | 255° |
| 2026-05-07 10:15 | 44.39756 | 8.42543 | 35014 ft | 400 kts | 255° |
| 2026-05-07 10:15 | 44.38298 | 8.35031 | 35014 ft | 400 kts | 255° |
| 2026-05-07 10:16 | 44.36837 | 8.27523 | 35015 ft | 400 kts | 255° |
| 2026-05-07 10:16 | 44.35364 | 8.20015 | 35012 ft | 400 kts | 255° |
| 2026-05-07 10:17 | 44.33892 | 8.12516 | 35009 ft | 400 kts | 255° |
| 2026-05-07 10:17 | 44.32424 | 8.05009 | 34996 ft | 400 kts | 255° |
| 2026-05-07 10:18 | 44.30945 | 7.97526 | 34999 ft | 400 kts | 255° |
| 2026-05-07 10:18 | 44.29456 | 7.90045 | 34999 ft | 400 kts | 255° |
| 2026-05-07 10:19 | 44.27927 | 7.82581 | 35001 ft | 400 kts | 251° |
| 2026-05-07 10:19 | 44.25162 | 7.75857 | 34999 ft | 405 kts | 232° |
| 2026-05-07 10:20 | 44.21018 | 7.70470 | 34988 ft | 408 kts | 225° |
| 2026-05-07 10:20 | 44.16782 | 7.65269 | 34996 ft | 409 kts | 226° |
| 2026-05-07 10:21 | 44.13329 | 7.59149 | 35017 ft | 400 kts | 244° |
| 2026-05-07 10:21 | 44.10821 | 7.52251 | 34999 ft | 400 kts | 245° |
| 2026-05-07 10:22 | 44.08280 | 7.45304 | 34986 ft | 400 kts | 244° |
| 2026-05-07 10:22 | 44.05766 | 7.38450 | 34988 ft | 401 kts | 244° |
| 2026-05-07 10:23 | 44.03231 | 7.31544 | 34991 ft | 401 kts | 244° |
| 2026-05-07 10:23 | 44.00692 | 7.24649 | 34973 ft | 401 kts | 245° |
| 2026-05-07 10:24 | 43.98149 | 7.17755 | 34979 ft | 401 kts | 245° |
| 2026-05-07 10:24 | 43.95607 | 7.10879 | 34987 ft | 400 kts | 245° |
| 2026-05-07 10:25 | 43.93069 | 7.04016 | 35000 ft | 400 kts | 244° |
| 2026-05-07 10:25 | 43.90525 | 6.97166 | 35002 ft | 399 kts | 244° |
| 2026-05-07 10:26 | 43.87976 | 6.90341 | 35003 ft | 399 kts | 244° |
| 2026-05-07 10:26 | 43.85430 | 6.83516 | 35008 ft | 398 kts | 244° |
| 2026-05-07 10:27 | 43.82880 | 6.76699 | 34987 ft | 399 kts | 244° |
| 2026-05-07 10:27 | 43.80328 | 6.69886 | 34987 ft | 398 kts | 244° |
| 2026-05-07 10:28 | 43.77773 | 6.63091 | 34988 ft | 398 kts | 244° |
| 2026-05-07 10:28 | 43.75232 | 6.56349 | 34990 ft | 398 kts | 244° |
| 2026-05-07 10:29 | 43.72669 | 6.49578 | 34989 ft | 397 kts | 244° |
| 2026-05-07 10:29 | 43.70104 | 6.42807 | 34998 ft | 398 kts | 244° |
| 2026-05-07 10:30 | 43.66248 | 6.32667 | 34997 ft | 397 kts | 244° |
| 2026-05-07 10:30 | 43.63674 | 6.25911 | 34979 ft | 397 kts | 244° |
| 2026-05-07 10:31 | 43.61097 | 6.19167 | 34981 ft | 397 kts | 244° |
| 2026-05-07 10:31 | 43.58524 | 6.12421 | 34993 ft | 397 kts | 244° |
| 2026-05-07 10:32 | 43.55942 | 6.05689 | 34993 ft | 397 kts | 244° |
| 2026-05-07 10:32 | 43.53351 | 5.98955 | 34987 ft | 398 kts | 244° |
| 2026-05-07 10:33 | 43.50746 | 5.92230 | 34990 ft | 398 kts | 244° |
| 2026-05-07 10:33 | 43.48146 | 5.85508 | 34963 ft | 398 kts | 244° |
| 2026-05-07 10:34 | 43.45550 | 5.78788 | 34965 ft | 398 kts | 243° |
| 2026-05-07 10:34 | 43.42947 | 5.72069 | 34978 ft | 398 kts | 243° |
| 2026-05-07 10:35 | 43.40333 | 5.65362 | 34979 ft | 398 kts | 243° |
| 2026-05-07 10:35 | 43.37708 | 5.58651 | 34983 ft | 398 kts | 243° |
| 2026-05-07 10:36 | 43.35076 | 5.51946 | 34990 ft | 399 kts | 243° |
| 2026-05-07 10:36 | 43.32466 | 5.45289 | 34990 ft | 399 kts | 243° |
| 2026-05-07 10:37 | 43.29819 | 5.38541 | 34974 ft | 399 kts | 243° |
| 2026-05-07 10:37 | 43.27205 | 5.31893 | 34991 ft | 398 kts | 243° |
| 2026-05-07 10:38 | 43.24564 | 5.25204 | 34991 ft | 399 kts | 243° |
| 2026-05-07 10:38 | 43.21911 | 5.18519 | 34997 ft | 399 kts | 242° |
| 2026-05-07 10:39 | 43.19253 | 5.11828 | 34998 ft | 400 kts | 242° |
| 2026-05-07 10:39 | 43.17026 | 5.06228 | 34998 ft | 399 kts | 242° |
| 2026-05-07 10:40 | 43.14386 | 4.99590 | 35007 ft | 399 kts | 242° |
| 2026-05-07 10:40 | 43.11702 | 4.92877 | 34987 ft | 399 kts | 242° |
| 2026-05-07 10:41 | 43.09049 | 4.86252 | 34990 ft | 400 kts | 242° |
| 2026-05-07 10:41 | 43.06327 | 4.79614 | 34996 ft | 401 kts | 237° |
| 2026-05-07 10:42 | 43.02566 | 4.73980 | 34997 ft | 404 kts | 224° |
| 2026-05-07 10:42 | 42.98351 | 4.68898 | 35004 ft | 404 kts | 224° |
| 2026-05-07 10:43 | 42.94133 | 4.63816 | 35004 ft | 404 kts | 224° |
| 2026-05-07 10:43 | 42.89920 | 4.58738 | 34995 ft | 404 kts | 224° |
| 2026-05-07 10:44 | 42.85708 | 4.53658 | 35004 ft | 404 kts | 224° |
| 2026-05-07 10:44 | 42.81496 | 4.48592 | 35009 ft | 404 kts | 224° |
| 2026-05-07 10:45 | 42.77270 | 4.43531 | 35008 ft | 405 kts | 224° |
| 2026-05-07 10:45 | 42.73041 | 4.38477 | 35012 ft | 405 kts | 223° |
| 2026-05-07 10:46 | 42.68804 | 4.33428 | 35017 ft | 405 kts | 223° |
| 2026-05-07 10:46 | 42.64566 | 4.28374 | 35015 ft | 405 kts | 223° |
| 2026-05-07 10:47 | 42.60330 | 4.23328 | 35022 ft | 405 kts | 223° |
| 2026-05-07 10:47 | 42.56088 | 4.18287 | 35038 ft | 405 kts | 223° |
| 2026-05-07 10:48 | 42.51844 | 4.13254 | 35007 ft | 405 kts | 223° |
| 2026-05-07 10:48 | 42.47604 | 4.08239 | 35015 ft | 404 kts | 223° |
| 2026-05-07 10:49 | 42.43362 | 4.03238 | 35019 ft | 404 kts | 223° |
| 2026-05-07 10:49 | 42.39126 | 3.98241 | 35016 ft | 404 kts | 223° |
| 2026-05-07 10:50 | 42.34916 | 3.93277 | 35022 ft | 404 kts | 223° |
| 2026-05-07 10:50 | 42.30673 | 3.88295 | 35002 ft | 404 kts | 223° |
| 2026-05-07 10:51 | 42.26419 | 3.83324 | 35016 ft | 404 kts | 222° |
| 2026-05-07 10:51 | 42.22168 | 3.78354 | 35023 ft | 404 kts | 222° |
| 2026-05-07 10:52 | 42.17915 | 3.73387 | 35030 ft | 404 kts | 222° |
| 2026-05-07 10:52 | 42.13662 | 3.68437 | 35021 ft | 404 kts | 222° |
| 2026-05-07 10:53 | 42.09554 | 3.63302 | 35025 ft | 402 kts | 231° |
| 2026-05-07 10:53 | 42.06740 | 3.56845 | 35026 ft | 402 kts | 245° |
| 2026-05-07 10:54 | 42.04472 | 3.49969 | 35022 ft | 402 kts | 245° |
| 2026-05-07 10:54 | 42.02191 | 3.43105 | 35023 ft | 402 kts | 244° |
| 2026-05-07 10:55 | 41.99905 | 3.36237 | 35025 ft | 402 kts | 244° |
| 2026-05-07 10:55 | 41.97608 | 3.29377 | 35028 ft | 402 kts | 244° |
| 2026-05-07 10:56 | 41.95305 | 3.22531 | 35027 ft | 402 kts | 242° |
| 2026-05-07 10:56 | 41.92175 | 3.16352 | 35014 ft | 400 kts | 232° |
| 2026-05-07 10:57 | 41.88802 | 3.10480 | 35022 ft | 400 kts | 232° |
| 2026-05-07 10:57 | 41.85417 | 3.04572 | 35038 ft | 399 kts | 232° |
| 2026-05-07 10:58 | 41.82029 | 2.98670 | 35030 ft | 399 kts | 232° |
| 2026-05-07 10:58 | 41.78637 | 2.92781 | 35024 ft | 399 kts | 232° |
| 2026-05-07 10:59 | 41.75240 | 2.86891 | 35022 ft | 399 kts | 232° |
| 2026-05-07 10:59 | 41.71839 | 2.81013 | 34996 ft | 399 kts | 232° |
| 2026-05-07 11:00 | 41.68436 | 2.75141 | 35005 ft | 399 kts | 232° |
| 2026-05-07 11:00 | 41.65040 | 2.69280 | 35014 ft | 399 kts | 232° |
| 2026-05-07 11:01 | 41.61634 | 2.63426 | 35029 ft | 399 kts | 232° |
| 2026-05-07 11:01 | 41.58227 | 2.57583 | 35025 ft | 399 kts | 232° |
| 2026-05-07 11:02 | 41.54815 | 2.51739 | 35030 ft | 399 kts | 232° |
| 2026-05-07 11:02 | 41.51404 | 2.45910 | 35022 ft | 398 kts | 231° |
| 2026-05-07 11:03 | 41.47994 | 2.40095 | 35028 ft | 397 kts | 231° |
| 2026-05-07 11:03 | 41.44592 | 2.34298 | 35032 ft | 397 kts | 231° |
| 2026-05-07 11:04 | 41.41191 | 2.28508 | 35055 ft | 396 kts | 231° |
| 2026-05-07 11:04 | 41.37784 | 2.22737 | 35044 ft | 396 kts | 231° |
| 2026-05-07 11:05 | 41.34371 | 2.16978 | 35040 ft | 396 kts | 231° |
| 2026-05-07 11:05 | 41.31323 | 2.10886 | 35031 ft | 398 kts | 244° |
| 2026-05-07 11:06 | 41.29925 | 2.03783 | 35036 ft | 403 kts | 257° |
| 2026-05-07 11:06 | 41.29076 | 1.96415 | 35036 ft | 403 kts | 257° |
| 2026-05-07 11:07 | 41.28219 | 1.89043 | 35056 ft | 404 kts | 257° |
| 2026-05-07 11:07 | 41.27358 | 1.81673 | 35034 ft | 403 kts | 257° |
| 2026-05-07 11:08 | 41.26492 | 1.74305 | 35024 ft | 403 kts | 257° |
| 2026-05-07 11:08 | 41.25629 | 1.66949 | 35013 ft | 403 kts | 257° |
| 2026-05-07 11:09 | 41.24765 | 1.59592 | 35013 ft | 403 kts | 257° |
| 2026-05-07 11:09 | 41.23894 | 1.52243 | 35035 ft | 403 kts | 256° |
| 2026-05-07 11:10 | 41.23021 | 1.44885 | 35023 ft | 404 kts | 256° |
| 2026-05-07 11:10 | 41.22141 | 1.37514 | 35018 ft | 404 kts | 256° |
| 2026-05-07 11:11 | 41.21252 | 1.30138 | 35022 ft | 405 kts | 256° |
| 2026-05-07 11:11 | 41.20354 | 1.22750 | 35026 ft | 405 kts | 256° |
| 2026-05-07 11:12 | 41.19452 | 1.15363 | 35028 ft | 405 kts | 256° |
| 2026-05-07 11:12 | 41.18550 | 1.07960 | 35024 ft | 407 kts | 256° |
| 2026-05-07 11:13 | 41.17636 | 1.00547 | 35021 ft | 407 kts | 256° |
| 2026-05-07 11:13 | 41.16716 | 0.93174 | 34999 ft | 408 kts | 256° |
| 2026-05-07 11:14 | 41.15791 | 0.85749 | 34992 ft | 408 kts | 256° |
| 2026-05-07 11:14 | 41.14858 | 0.78317 | 34998 ft | 408 kts | 256° |
| 2026-05-07 11:15 | 41.13916 | 0.70877 | 35001 ft | 409 kts | 256° |
| 2026-05-07 11:15 | 41.12976 | 0.63421 | 34977 ft | 410 kts | 256° |
| 2026-05-07 11:16 | 41.12033 | 0.55953 | 34977 ft | 410 kts | 256° |
| 2026-05-07 11:16 | 41.11078 | 0.48493 | 34977 ft | 410 kts | 256° |
| 2026-05-07 11:17 | 41.10121 | 0.41027 | 34975 ft | 410 kts | 256° |
| 2026-05-07 11:17 | 41.09153 | 0.33571 | 34983 ft | 411 kts | 256° |
| 2026-05-07 11:18 | 41.08179 | 0.26098 | 34971 ft | 412 kts | 256° |
| 2026-05-07 11:18 | 41.07202 | 0.18623 | 34967 ft | 412 kts | 256° |
| 2026-05-07 11:19 | 41.06225 | 0.11140 | 34963 ft | 412 kts | 256° |
| 2026-05-07 11:19 | 41.05235 | 0.03665 | 34962 ft | 412 kts | 256° |
| 2026-05-07 11:20 | 41.04238 | -0.03811 | 34969 ft | 412 kts | 256° |
| 2026-05-07 11:20 | 41.03241 | -0.11300 | 34955 ft | 413 kts | 256° |
| 2026-05-07 11:21 | 41.02235 | -0.18795 | 34949 ft | 414 kts | 256° |
| 2026-05-07 11:21 | 41.01215 | -0.26299 | 34949 ft | 414 kts | 256° |
| 2026-05-07 11:22 | 40.99575 | -0.33532 | 34952 ft | 410 kts | 247° |
| 2026-05-07 11:22 | 40.97657 | -0.40645 | 34952 ft | 410 kts | 247° |
| 2026-05-07 11:23 | 40.95730 | -0.47759 | 34953 ft | 411 kts | 247° |
| 2026-05-07 11:23 | 40.93799 | -0.54869 | 34955 ft | 411 kts | 246° |
| 2026-05-07 11:24 | 40.91856 | -0.61979 | 34953 ft | 411 kts | 247° |
| 2026-05-07 11:24 | 40.89909 | -0.69077 | 34945 ft | 410 kts | 246° |
| 2026-05-07 11:25 | 40.87968 | -0.76166 | 34966 ft | 410 kts | 246° |
| 2026-05-07 11:25 | 40.86034 | -0.83199 | 34975 ft | 410 kts | 246° |
| 2026-05-07 11:26 | 40.84072 | -0.90288 | 34964 ft | 411 kts | 246° |
| 2026-05-07 11:26 | 40.82100 | -0.97377 | 34963 ft | 412 kts | 246° |
| 2026-05-07 11:27 | 40.80123 | -1.04483 | 34821 ft | 413 kts | 246° |
| 2026-05-07 11:27 | 40.79138 | -1.08032 | 34570 ft | 412 kts | 246° |
| 2026-05-07 11:27 | 40.78152 | -1.11577 | 34330 ft | 411 kts | 246° |
| 2026-05-07 11:28 | 40.77165 | -1.15114 | 34118 ft | 410 kts | 245° |
| 2026-05-07 11:28 | 40.76176 | -1.18650 | 33871 ft | 411 kts | 245° |
| 2026-05-07 11:28 | 40.75521 | -1.20988 | 33690 ft | 411 kts | 245° |
| 2026-05-07 11:28 | 40.74527 | -1.24528 | 33412 ft | 412 kts | 245° |
| 2026-05-07 11:29 | 40.73531 | -1.28076 | 33145 ft | 413 kts | 245° |
| 2026-05-07 11:29 | 40.72534 | -1.31633 | 32878 ft | 414 kts | 245° |
| 2026-05-07 11:29 | 40.71535 | -1.35192 | 32611 ft | 415 kts | 245° |
| 2026-05-07 11:29 | 40.70532 | -1.38762 | 32351 ft | 416 kts | 245° |
| 2026-05-07 11:30 | 40.69183 | -1.43549 | 31997 ft | 417 kts | 245° |
| 2026-05-07 11:30 | 40.68500 | -1.45917 | 31815 ft | 417 kts | 243° |
| 2026-05-07 11:30 | 40.67025 | -1.49139 | 31566 ft | 409 kts | 226° |
| 2026-05-07 11:30 | 40.64882 | -1.51564 | 31322 ft | 407 kts | 213° |
| 2026-05-07 11:31 | 40.62486 | -1.53572 | 31088 ft | 410 kts | 211° |
| 2026-05-07 11:31 | 40.60060 | -1.55573 | 30839 ft | 413 kts | 211° |
| 2026-05-07 11:31 | 40.57622 | -1.57581 | 30593 ft | 414 kts | 211° |
| 2026-05-07 11:31 | 40.55179 | -1.59593 | 30352 ft | 415 kts | 211° |
| 2026-05-07 11:32 | 40.50269 | -1.63637 | 29832 ft | 417 kts | 211° |
| 2026-05-07 11:32 | 40.47804 | -1.65663 | 29541 ft | 419 kts | 211° |
| 2026-05-07 11:32 | 40.45334 | -1.67690 | 29266 ft | 419 kts | 211° |
| 2026-05-07 11:33 | 40.42891 | -1.69695 | 28979 ft | 420 kts | 211° |
| 2026-05-07 11:33 | 40.40411 | -1.71728 | 28706 ft | 421 kts | 211° |
| 2026-05-07 11:33 | 40.37924 | -1.73763 | 28423 ft | 421 kts | 211° |
| 2026-05-07 11:33 | 40.35437 | -1.75795 | 28150 ft | 421 kts | 211° |
| 2026-05-07 11:34 | 40.32953 | -1.77819 | 27890 ft | 420 kts | 211° |
| 2026-05-07 11:34 | 40.30472 | -1.79836 | 27620 ft | 419 kts | 211° |
| 2026-05-07 11:34 | 40.27997 | -1.81845 | 27353 ft | 418 kts | 211° |
| 2026-05-07 11:34 | 40.25526 | -1.83846 | 27087 ft | 417 kts | 211° |
| 2026-05-07 11:35 | 40.23062 | -1.85841 | 26822 ft | 416 kts | 211° |
| 2026-05-07 11:35 | 40.20613 | -1.87833 | 26562 ft | 414 kts | 211° |
| 2026-05-07 11:35 | 40.18171 | -1.89814 | 26308 ft | 413 kts | 211° |
| 2026-05-07 11:35 | 40.15733 | -1.91795 | 26075 ft | 413 kts | 211° |
| 2026-05-07 11:36 | 40.13294 | -1.93779 | 25822 ft | 413 kts | 211° |
| 2026-05-07 11:36 | 40.10859 | -1.95759 | 25577 ft | 412 kts | 211° |
| 2026-05-07 11:36 | 40.08425 | -1.97737 | 25328 ft | 412 kts | 211° |
| 2026-05-07 11:36 | 40.05994 | -1.99710 | 25077 ft | 411 kts | 211° |
| 2026-05-07 11:37 | 40.03565 | -2.01679 | 24834 ft | 411 kts | 211° |
| 2026-05-07 11:37 | 40.01140 | -2.03644 | 24593 ft | 410 kts | 211° |
| 2026-05-07 11:37 | 39.98726 | -2.05621 | 24355 ft | 410 kts | 213° |
| 2026-05-07 11:37 | 39.96595 | -2.08080 | 24113 ft | 412 kts | 229° |
| 2026-05-07 11:38 | 39.95084 | -2.11253 | 23874 ft | 416 kts | 245° |
| 2026-05-07 11:38 | 39.94363 | -2.14906 | 23634 ft | 420 kts | 262° |
| 2026-05-07 11:38 | 39.94531 | -2.18713 | 23370 ft | 425 kts | 280° |
| 2026-05-07 11:38 | 39.95586 | -2.22318 | 23099 ft | 430 kts | 297° |
| 2026-05-07 11:39 | 39.97437 | -2.25385 | 22823 ft | 434 kts | 314° |
| 2026-05-07 11:39 | 39.99639 | -2.28083 | 22550 ft | 434 kts | 315° |
| 2026-05-07 11:39 | 40.01849 | -2.30749 | 22281 ft | 431 kts | 315° |
| 2026-05-07 11:39 | 40.04020 | -2.33346 | 21995 ft | 413 kts | 315° |
| 2026-05-07 11:40 | 40.06077 | -2.35798 | 21732 ft | 389 kts | 315° |
| 2026-05-07 11:40 | 40.08018 | -2.38117 | 21469 ft | 368 kts | 314° |
| 2026-05-07 11:40 | 40.09874 | -2.40348 | 21212 ft | 359 kts | 314° |
| 2026-05-07 11:40 | 40.11693 | -2.42548 | 20952 ft | 354 kts | 314° |
| 2026-05-07 11:41 | 40.13490 | -2.44732 | 20689 ft | 352 kts | 314° |
| 2026-05-07 11:41 | 40.15277 | -2.46907 | 20436 ft | 350 kts | 314° |
| 2026-05-07 11:41 | 40.17051 | -2.49068 | 20180 ft | 348 kts | 314° |
| 2026-05-07 11:41 | 40.18821 | -2.51223 | 19926 ft | 347 kts | 314° |
| 2026-05-07 11:42 | 40.20584 | -2.53372 | 19688 ft | 345 kts | 314° |
| 2026-05-07 11:42 | 40.22335 | -2.55506 | 19449 ft | 343 kts | 314° |
| 2026-05-07 11:42 | 40.24049 | -2.57607 | 19205 ft | 341 kts | 311° |
| 2026-05-07 11:42 | 40.25410 | -2.60086 | 18962 ft | 332 kts | 291° |
| 2026-05-07 11:43 | 40.26013 | -2.62953 | 18723 ft | 324 kts | 271° |
| 2026-05-07 11:43 | 40.26047 | -2.65891 | 18482 ft | 323 kts | 266° |
| 2026-05-07 11:43 | 40.26040 | -2.68823 | 18246 ft | 322 kts | 266° |
| 2026-05-07 11:43 | 40.26030 | -2.71752 | 17977 ft | 321 kts | 266° |
| 2026-05-07 11:44 | 40.26016 | -2.74670 | 17702 ft | 320 kts | 266° |
| 2026-05-07 11:44 | 40.26002 | -2.77577 | 17434 ft | 318 kts | 266° |
| 2026-05-07 11:44 | 40.25989 | -2.80466 | 17168 ft | 317 kts | 267° |
| 2026-05-07 11:44 | 40.25977 | -2.83347 | 16903 ft | 316 kts | 267° |
| 2026-05-07 11:45 | 40.25966 | -2.86214 | 16638 ft | 313 kts | 267° |
| 2026-05-07 11:45 | 40.25956 | -2.89014 | 16368 ft | 300 kts | 266° |
| 2026-05-07 11:45 | 40.25947 | -2.91689 | 16105 ft | 287 kts | 266° |
| 2026-05-07 11:45 | 40.25935 | -2.94252 | 15854 ft | 279 kts | 266° |
| 2026-05-07 11:46 | 40.25920 | -2.96782 | 15601 ft | 277 kts | 266° |
| 2026-05-07 11:46 | 40.25903 | -2.99294 | 15348 ft | 275 kts | 266° |
| 2026-05-07 11:46 | 40.25887 | -3.01790 | 15099 ft | 273 kts | 266° |
| 2026-05-07 11:46 | 40.25872 | -3.04266 | 14852 ft | 271 kts | 266° |
| 2026-05-07 11:47 | 40.25857 | -3.06728 | 14608 ft | 270 kts | 266° |
| 2026-05-07 11:47 | 40.25842 | -3.09176 | 14365 ft | 268 kts | 266° |
| 2026-05-07 11:47 | 40.25827 | -3.11614 | 14121 ft | 267 kts | 266° |
| 2026-05-07 11:47 | 40.25873 | -3.14038 | 13884 ft | 268 kts | 275° |
| 2026-05-07 11:48 | 40.26189 | -3.16443 | 13635 ft | 268 kts | 277° |
| 2026-05-07 11:48 | 40.26493 | -3.18839 | 13366 ft | 265 kts | 272° |
| 2026-05-07 11:48 | 40.26259 | -3.21169 | 13096 ft | 257 kts | 246° |
| 2026-05-07 11:48 | 40.25529 | -3.23289 | 12829 ft | 254 kts | 241° |
| 2026-05-07 11:49 | 40.24737 | -3.25352 | 12567 ft | 253 kts | 241° |
| 2026-05-07 11:49 | 40.23942 | -3.27394 | 12299 ft | 251 kts | 241° |
| 2026-05-07 11:49 | 40.23148 | -3.29413 | 12044 ft | 249 kts | 241° |
| 2026-05-07 11:49 | 40.22480 | -3.31491 | 11777 ft | 249 kts | 260° |
| 2026-05-07 11:50 | 40.22730 | -3.33710 | 11474 ft | 255 kts | 295° |
| 2026-05-07 11:50 | 40.23960 | -3.35406 | 10795 ft | 268 kts | 332° |
| 2026-05-07 11:50 | 40.25795 | -3.36051 | 10058 ft | 283 kts | 350° |
| 2026-05-07 11:50 | 40.27806 | -3.36197 | 9294 ft | 298 kts | 9° |
| 2026-05-07 11:51 | 40.29703 | -3.35200 | 8963 ft | 294 kts | 36° |
| 2026-05-07 11:51 | 40.31226 | -3.33514 | 8656 ft | 289 kts | 44° |
| 2026-05-07 11:51 | 40.32684 | -3.31723 | 8352 ft | 285 kts | 45° |
| 2026-05-07 11:51 | 40.33827 | -3.29665 | 8033 ft | 277 kts | 71° |
| 2026-05-07 11:52 | 40.34118 | -3.27248 | 7731 ft | 266 kts | 99° |
| 2026-05-07 11:52 | 40.33623 | -3.24964 | 7425 ft | 258 kts | 118° |
| 2026-05-07 11:52 | 40.32563 | -3.23141 | 7129 ft | 249 kts | 138° |
| 2026-05-07 11:52 | 40.31226 | -3.21752 | 6834 ft | 243 kts | 149° |
| 2026-05-07 11:53 | 40.29795 | -3.20601 | 6537 ft | 240 kts | 150° |
| 2026-05-07 11:53 | 40.28362 | -3.19502 | 6241 ft | 237 kts | 151° |
| 2026-05-07 11:53 | 40.26883 | -3.18630 | 5928 ft | 233 kts | 171° |
| 2026-05-07 11:53 | 40.25299 | -3.18823 | 5621 ft | 231 kts | 202° |
| 2026-05-07 11:54 | 40.24006 | -3.20056 | 5312 ft | 233 kts | 229° |
| 2026-05-07 11:54 | 40.23309 | -3.21957 | 5041 ft | 235 kts | 258° |
| 2026-05-07 11:54 | 40.23399 | -3.24098 | 4984 ft | 241 kts | 287° |
| 2026-05-07 11:54 | 40.24172 | -3.26052 | 4995 ft | 240 kts | 300° |
| 2026-05-07 11:55 | 40.25018 | -3.27876 | 4890 ft | 233 kts | 300° |
| 2026-05-07 11:55 | 40.25859 | -3.29675 | 4704 ft | 229 kts | 299° |
| 2026-05-07 11:55 | 40.26673 | -3.31423 | 4525 ft | 221 kts | 299° |
| 2026-05-07 11:55 | 40.27460 | -3.33121 | 4352 ft | 216 kts | 300° |
| 2026-05-07 11:56 | 40.28235 | -3.34797 | 4181 ft | 214 kts | 300° |
| 2026-05-07 11:56 | 40.29003 | -3.36460 | 4051 ft | 213 kts | 299° |
| 2026-05-07 11:56 | 40.29772 | -3.38131 | 3995 ft | 214 kts | 299° |
| 2026-05-07 11:56 | 40.30584 | -3.39749 | 4015 ft | 214 kts | 310° |
| 2026-05-07 11:57 | 40.31714 | -3.40950 | 4003 ft | 202 kts | 323° |
| 2026-05-07 11:57 | 40.32809 | -3.41994 | 3995 ft | 190 kts | 322° |
| 2026-05-07 11:57 | 40.33868 | -3.43007 | 3994 ft | 187 kts | 322° |
| 2026-05-07 11:57 | 40.34909 | -3.44005 | 3997 ft | 183 kts | 324° |
| 2026-05-07 11:58 | 40.35929 | -3.44983 | 4003 ft | 182 kts | 324° |
| 2026-05-07 11:58 | 40.36954 | -3.45967 | 4009 ft | 182 kts | 324° |
| 2026-05-07 11:58 | 40.37965 | -3.46936 | 4005 ft | 179 kts | 324° |
| 2026-05-07 11:58 | 40.38963 | -3.47916 | 4007 ft | 179 kts | 323° |
| 2026-05-07 11:59 | 40.39954 | -3.48922 | 4015 ft | 180 kts | 322° |
| 2026-05-07 11:59 | 40.40890 | -3.49882 | 3908 ft | 170 kts | 322° |
| 2026-05-07 11:59 | 40.41839 | -3.50824 | 3485 ft | 173 kts | 323° |
| 2026-05-07 11:59 | 40.42803 | -3.51802 | 3078 ft | 175 kts | 322° |
| 2026-05-07 12:00 | 40.43744 | -3.52787 | 2669 ft | 172 kts | 323° |
| 2026-05-07 12:00 | 40.44680 | -3.53732 | 2388 ft | 166 kts | 324° |
| 2026-05-07 12:00 | 40.45570 | -3.54642 | 2157 ft | 158 kts | 324° |
| 2026-05-07 12:00 | 40.46437 | -3.55517 | 1989 ft | 155 kts | 324° |
| 2026-05-07 12:01 | 40.47254 | -3.56341 | 1985 ft | 131 kts | 322° |
| 2026-05-07 12:01 | 40.47828 | -3.56927 | 1996 ft | 80 kts | 322° |
| 2026-05-07 12:01 | 40.48093 | -3.57217 | 2005 ft | 24 kts | 305° |
| 2026-05-07 12:01 | 40.48153 | -3.57366 | 2003 ft | 16 kts | 296° |
| 2026-05-07 12:02 | 40.48171 | -3.57460 | 2002 ft | 9 kts | 258° |
| 2026-05-07 12:02 | 40.48116 | -3.57486 | 2001 ft | 10 kts | 160° |
| 2026-05-07 12:02 | 40.48053 | -3.57428 | 2002 ft | 12 kts | 143° |
| 2026-05-07 12:02 | 40.47983 | -3.57357 | 2003 ft | 13 kts | 142° |
| 2026-05-07 12:03 | 40.47917 | -3.57343 | 2004 ft | 11 kts | 220° |
| 2026-05-07 12:03 | 40.47934 | -3.57425 | 2003 ft | 13 kts | 321° |
| 2026-05-07 12:03 | 40.48018 | -3.57510 | 2002 ft | 18 kts | 322° |
| 2026-05-07 12:03 | 40.48126 | -3.57620 | 1999 ft | 22 kts | 322° |
| 2026-05-07 12:04 | 40.48238 | -3.57734 | 1995 ft | 16 kts | 322° |
| 2026-05-07 12:04 | 40.48342 | -3.57838 | 1992 ft | 18 kts | 324° |
| 2026-05-07 12:04 | 40.48442 | -3.57924 | 1992 ft | 17 kts | 328° |
| 2026-05-07 12:04 | 40.48510 | -3.58015 | 2001 ft | 13 kts | 281° |
| 2026-05-07 12:05 | 40.48512 | -3.58102 | 2005 ft | 7 kts | 270° |
| 2026-05-07 12:05 | 40.48512 | -3.58154 | 2007 ft | 8 kts | 269° |
| 2026-05-07 12:05 | 40.48512 | -3.58263 | 2011 ft | 16 kts | 270° |
| 2026-05-07 12:05 | 40.48511 | -3.58415 | 2016 ft | 15 kts | 269° |
| 2026-05-07 12:06 | 40.48510 | -3.58552 | 2018 ft | 15 kts | 270° |
| 2026-05-07 12:06 | 40.48510 | -3.58695 | 2029 ft | 17 kts | 270° |
| 2026-05-07 12:06 | 40.48522 | -3.58793 | 2032 ft | 10 kts | 310° |
| 2026-05-07 12:06 | 40.48599 | -3.58808 | 2022 ft | 13 kts | 360° |
| 2026-05-07 12:07 | 40.48704 | -3.58809 | 2027 ft | 17 kts | 360° |
| 2026-05-07 12:07 | 40.48833 | -3.58810 | 2022 ft | 20 kts | 359° |
| 2026-05-07 12:07 | 40.48973 | -3.58811 | 2022 ft | 14 kts | 359° |
| 2026-05-07 12:07 | 40.49078 | -3.58812 | 2022 ft | 14 kts | 360° |
| 2026-05-07 12:08 | 40.49121 | -3.58850 | 2025 ft | 7 kts | 272° |
| 2026-05-07 12:08 | 40.49120 | -3.58887 | 2027 ft | 4 kts | 269° |
| 2026-05-07 12:08 | 40.49120 | -3.58931 | 2022 ft | 5 kts | 270° |
| 2026-05-07 12:08 | 40.49120 | -3.58962 | 2028 ft | 1 kts | 270° |
| 2026-05-07 12:09 | 40.49120 | -3.58963 | 2028 ft | 0 kts | 270° |